createdAt,value
2023-03-03T00:00:54.422Z,2.25
2023-03-03T00:03:25.394Z,2.80
2023-03-03T00:05:53.939Z,2.22
2023-03-03T00:08:22.681Z,1.92
2023-03-03T00:10:51.141Z,2.55
2023-03-03T00:13:21.503Z,2.35
2023-03-03T00:15:49.918Z,2.25
2023-03-03T00:18:27.987Z,3.65
2023-03-03T00:20:56.892Z,2.35
2023-03-03T00:23:31.556Z,5.70
2023-03-03T00:26:00.464Z,2.65
2023-03-03T00:28:30.442Z,2.40
2023-03-03T00:30:59.818Z,3.50
2023-03-03T00:33:32.989Z,2.60
2023-03-03T00:36:11.468Z,2.30
2023-03-03T00:38:39.802Z,1.95
2023-03-03T00:41:15.736Z,1.95
2023-03-03T00:43:44.029Z,2.85
2023-03-03T00:46:12.358Z,2.20
2023-03-03T00:48:44.858Z,2.58
2023-03-03T00:51:26.146Z,2.30
2023-03-03T00:53:54.599Z,2.90
2023-03-03T00:56:22.964Z,2.10
2023-03-03T00:58:51.407Z,2.00
2023-03-03T01:01:19.945Z,2.05
2023-03-03T01:03:49.700Z,4.38
2023-03-03T01:06:18.216Z,2.38
2023-03-03T01:08:46.538Z,2.30
2023-03-03T01:11:16.876Z,2.30
2023-03-03T01:13:45.848Z,9.57
2023-03-03T01:16:14.164Z,3.65
2023-03-03T01:18:42.770Z,5.85
2023-03-03T01:21:12.554Z,2.40
2023-03-03T01:23:40.945Z,2.35
2023-03-03T01:26:09.248Z,14.77
2023-03-03T01:28:37.641Z,3.15
2023-03-03T01:31:06.408Z,5.30
2023-03-03T01:33:35.012Z,2.28
2023-03-03T01:36:03.365Z,2.08
2023-03-03T01:38:33.198Z,1.67
2023-03-03T01:41:01.579Z,4.25
2023-03-03T01:43:31.105Z,4.57
2023-03-03T01:46:36.076Z,1.60
2023-03-03T01:49:06.411Z,2.03
2023-03-03T01:51:36.047Z,1.45
2023-03-03T01:54:06.576Z,3.20
2023-03-03T01:56:34.916Z,1.67
2023-03-03T01:59:04.885Z,1.92
2023-03-03T02:01:33.330Z,2.63
2023-03-03T02:04:01.739Z,1.33
2023-03-03T02:06:31.439Z,2.95
2023-03-03T02:09:01.624Z,1.90
2023-03-03T02:11:32.403Z,2.80
2023-03-03T02:14:00.699Z,6.65
2023-03-03T02:16:29.055Z,1.95
2023-03-03T02:18:57.374Z,1.40
2023-03-03T02:21:27.668Z,1.60
2023-03-03T02:23:59.231Z,3.13
2023-03-03T02:26:29.352Z,2.20
2023-03-03T02:28:57.724Z,3.33
2023-03-03T02:31:27.406Z,2.85
2023-03-03T02:33:55.976Z,0.82
2023-03-03T02:36:25.249Z,1.85
2023-03-03T02:38:56.271Z,1.48
2023-03-03T02:41:30.598Z,2.35
2023-03-03T02:44:00.429Z,2.88
2023-03-03T02:46:28.844Z,2.40
2023-03-03T02:48:57.264Z,1.92
2023-03-03T02:51:25.674Z,1.60
2023-03-03T02:53:54.084Z,1.15
2023-03-03T02:56:22.454Z,1.88
2023-03-03T02:58:52.220Z,1.48
2023-03-03T03:01:20.635Z,3.28
2023-03-03T03:03:49.072Z,1.10
2023-03-03T03:06:17.388Z,1.13
2023-03-03T03:08:45.720Z,1.00
2023-03-03T03:11:14.071Z,2.72
2023-03-03T03:13:42.415Z,1.70
2023-03-03T03:16:12.069Z,1.35
2023-03-03T03:18:40.418Z,1.80
2023-03-03T03:21:10.061Z,2.05
2023-03-03T03:23:38.867Z,2.05
2023-03-03T03:26:07.361Z,2.50
2023-03-03T03:28:35.840Z,1.27
2023-03-03T03:31:04.397Z,2.35
2023-03-03T03:33:34.341Z,1.65
2023-03-03T03:36:03.637Z,3.53
2023-03-03T03:38:32.504Z,3.33
2023-03-03T03:41:00.907Z,2.90
2023-03-03T03:43:29.262Z,6.18
2023-03-03T03:45:57.626Z,2.05
2023-03-03T03:48:26.003Z,4.78
2023-03-03T03:51:02.458Z,1.80
2023-03-03T03:53:30.773Z,0.67
2023-03-03T03:55:59.182Z,0.90
2023-03-03T03:58:27.543Z,1.98
2023-03-03T04:00:56.269Z,1.10
2023-03-03T04:03:25.030Z,2.15
2023-03-03T04:05:55.450Z,2.05
2023-03-03T04:08:23.861Z,1.15
2023-03-03T04:10:52.168Z,1.98
2023-03-03T04:13:20.536Z,0.98
2023-03-03T04:15:48.932Z,1.55
2023-03-03T04:18:17.329Z,4.15
2023-03-03T04:20:45.633Z,1.25
2023-03-03T04:23:15.366Z,2.35
2023-03-03T04:25:43.687Z,1.60
2023-03-03T04:28:12.037Z,1.58
2023-03-03T04:30:40.401Z,1.25
2023-03-03T04:33:08.979Z,1.15
2023-03-03T04:35:37.409Z,1.50
2023-03-03T04:38:06.049Z,1.27
2023-03-03T04:40:35.769Z,6.75
2023-03-03T04:43:04.196Z,1.35
2023-03-03T04:45:32.697Z,1.60
2023-03-03T04:48:01.156Z,1.30
2023-03-03T04:50:29.465Z,2.17
2023-03-03T04:52:57.810Z,1.08
2023-03-03T04:55:26.217Z,1.38
2023-03-03T04:57:55.882Z,1.70
2023-03-03T05:00:24.403Z,1.13
2023-03-03T05:02:52.841Z,1.33
2023-03-03T05:05:21.155Z,1.90
2023-03-03T05:07:49.496Z,2.67
2023-03-03T05:10:17.890Z,1.55
2023-03-03T05:12:46.277Z,1.30
2023-03-03T05:15:15.978Z,1.42
2023-03-03T05:17:44.280Z,1.95
2023-03-03T05:20:13.517Z,2.17
2023-03-03T05:22:41.898Z,2.13
2023-03-03T05:25:12.654Z,3.10
2023-03-03T05:27:41.021Z,1.40
2023-03-03T05:30:10.782Z,1.20
2023-03-03T05:32:40.492Z,2.88
2023-03-03T05:35:09.377Z,3.58
2023-03-03T05:37:40.047Z,1.63
2023-03-03T05:40:10.198Z,3.60
2023-03-03T05:42:38.591Z,1.63
2023-03-03T05:45:07.997Z,2.75
2023-03-03T05:47:36.313Z,1.70
2023-03-03T05:50:06.676Z,3.40
2023-03-03T05:52:35.031Z,1.45
2023-03-03T05:55:03.332Z,1.23
2023-03-03T05:57:32.013Z,1.30
2023-03-03T06:00:00.371Z,1.60
2023-03-03T06:02:28.738Z,2.80
2023-03-03T06:04:57.232Z,2.38
2023-03-03T06:07:26.907Z,4.00
2023-03-03T06:09:55.236Z,5.18
2023-03-03T06:12:23.537Z,1.98
2023-03-03T06:14:54.004Z,2.30
2023-03-03T06:17:22.347Z,1.50
2023-03-03T06:19:50.758Z,1.50
2023-03-03T06:22:20.374Z,1.48
2023-03-03T06:24:50.124Z,1.40
2023-03-03T06:27:18.583Z,1.40
2023-03-03T06:29:47.042Z,1.50
2023-03-03T06:32:15.520Z,1.67
2023-03-03T06:34:43.956Z,1.65
2023-03-03T06:37:12.313Z,2.72
2023-03-03T06:39:40.813Z,1.33
2023-03-03T06:42:10.598Z,1.30
2023-03-03T06:44:39.039Z,2.17
2023-03-03T06:47:07.596Z,2.38
2023-03-03T06:49:36.175Z,1.98
2023-03-03T06:52:11.264Z,4.82
2023-03-03T06:54:39.712Z,2.88
2023-03-03T06:57:21.492Z,1.85
2023-03-03T06:59:51.623Z,1.77
2023-03-03T07:02:20.144Z,1.70
2023-03-03T07:04:52.696Z,2.00
2023-03-03T07:07:22.180Z,4.15
2023-03-03T07:09:51.664Z,16.92
2023-03-03T07:12:22.737Z,2.55
2023-03-03T07:14:55.644Z,3.78
2023-03-03T07:17:25.678Z,4.03
2023-03-03T07:19:53.993Z,6.10
2023-03-03T07:22:23.113Z,1.98
2023-03-03T07:24:53.137Z,1.98
2023-03-03T07:27:25.067Z,2.05
2023-03-03T07:29:54.355Z,3.35
2023-03-03T07:32:26.805Z,2.00
2023-03-03T07:34:56.232Z,8.50
2023-03-03T07:37:30.705Z,7.10
2023-03-03T07:39:59.295Z,7.93
2023-03-03T07:42:29.990Z,14.02
2023-03-03T07:44:59.294Z,15.30
2023-03-03T07:47:28.365Z,55.83
2023-03-03T07:49:57.182Z,44.58
2023-03-03T07:52:27.752Z,33.33
2023-03-03T07:54:57.043Z,28.88
2023-03-03T07:57:28.069Z,18.95
2023-03-03T07:59:56.982Z,26.75
2023-03-03T08:02:41.411Z,15.40
2023-03-03T08:05:31.482Z,21.08
2023-03-03T08:08:17.791Z,9.65
2023-03-03T08:10:48.221Z,10.20
2023-03-03T08:13:20.135Z,15.50
2023-03-03T08:15:50.066Z,11.30
2023-03-03T08:18:24.725Z,12.85
2023-03-03T08:20:57.420Z,4.57
2023-03-03T08:23:25.830Z,6.25
2023-03-03T08:25:54.333Z,12.20
2023-03-03T08:28:25.107Z,6.10
2023-03-03T08:31:05.602Z,6.40
2023-03-03T08:33:41.627Z,3.83
2023-03-03T08:36:14.487Z,3.38
2023-03-03T08:38:43.436Z,4.80
2023-03-03T08:41:11.855Z,5.47
2023-03-03T08:43:41.582Z,4.72
2023-03-03T08:46:11.685Z,7.10
2023-03-03T08:48:40.064Z,10.32
2023-03-03T08:51:08.370Z,11.13
2023-03-03T08:53:38.191Z,9.10
2023-03-03T08:56:11.264Z,10.55
2023-03-03T08:58:49.813Z,7.05
2023-03-03T09:01:28.199Z,4.72
2023-03-03T09:03:56.639Z,6.18
2023-03-03T09:06:25.203Z,6.00
2023-03-03T09:08:54.735Z,11.75
2023-03-03T09:11:25.075Z,6.15
2023-03-03T09:13:58.880Z,10.40
2023-03-03T09:16:38.435Z,6.90
2023-03-03T09:19:18.220Z,4.38
2023-03-03T09:21:46.538Z,7.45
2023-03-03T09:24:20.161Z,5.30
2023-03-03T09:26:48.664Z,3.70
2023-03-03T09:29:25.778Z,5.72
2023-03-03T09:31:55.098Z,4.97
2023-03-03T09:34:25.116Z,5.22
2023-03-03T09:36:53.897Z,4.15
2023-03-03T09:39:23.348Z,5.55
2023-03-03T09:42:24.789Z,3.42
2023-03-03T09:45:28.792Z,5.93
2023-03-03T09:48:04.592Z,3.50
2023-03-03T09:50:36.572Z,3.08
2023-03-03T09:53:14.661Z,6.82
2023-03-03T09:55:48.199Z,4.35
2023-03-03T09:58:45.962Z,2.72
2023-03-03T10:01:44.637Z,7.15
2023-03-03T10:04:26.232Z,3.17
2023-03-03T10:06:57.927Z,9.02
2023-03-03T10:09:46.377Z,2.88
2023-03-03T10:12:18.016Z,7.40
2023-03-03T10:15:17.977Z,2.40
2023-03-03T10:17:50.891Z,5.18
2023-03-03T10:20:30.922Z,1.73
2023-03-03T10:23:06.345Z,3.72
2023-03-03T10:25:42.222Z,2.00
2023-03-03T10:28:30.418Z,4.57
2023-03-03T10:31:10.662Z,3.90
2023-03-03T10:33:44.591Z,4.43
2023-03-03T10:36:21.496Z,5.97
2023-03-03T10:38:56.380Z,7.05
2023-03-03T10:41:38.994Z,4.65
2023-03-03T10:44:17.575Z,4.55
2023-03-03T10:46:53.201Z,3.63
2023-03-03T10:49:44.753Z,1.27
2023-03-03T10:52:21.223Z,1.98
2023-03-03T10:54:57.601Z,1.43
2023-03-03T10:57:27.636Z,5.38
2023-03-03T11:00:05.428Z,3.53
2023-03-03T11:02:36.944Z,1.77
2023-03-03T11:05:19.419Z,4.00
2023-03-03T11:07:50.320Z,5.07
2023-03-03T11:10:29.319Z,1.60
2023-03-03T11:13:10.687Z,2.70
2023-03-03T11:15:51.871Z,2.20
2023-03-03T11:18:26.250Z,3.67
2023-03-03T11:20:59.698Z,2.53
2023-03-03T11:23:52.013Z,3.25
2023-03-03T11:26:30.085Z,1.42
2023-03-03T11:29:05.320Z,1.50
2023-03-03T11:31:36.978Z,3.20
2023-03-03T11:34:10.390Z,4.05
2023-03-03T11:36:39.621Z,1.38
2023-03-03T11:39:10.711Z,1.40
2023-03-03T11:41:40.842Z,3.88
2023-03-03T11:44:18.601Z,2.95
2023-03-03T11:46:49.253Z,1.75
2023-03-03T11:49:22.532Z,6.50
2023-03-03T11:51:55.207Z,1.05
2023-03-03T11:54:26.176Z,1.35
2023-03-03T11:56:56.306Z,0.93
2023-03-03T11:59:36.636Z,1.50
2023-03-03T12:02:06.378Z,1.88
2023-03-03T12:04:36.911Z,1.42
2023-03-03T12:07:18.946Z,1.65
2023-03-03T12:09:53.629Z,1.45
2023-03-03T12:12:23.868Z,2.67
2023-03-03T12:15:05.780Z,3.22
2023-03-03T12:17:46.161Z,1.52
2023-03-03T12:20:16.806Z,2.38
2023-03-03T12:23:05.896Z,1.23
2023-03-03T12:25:38.361Z,2.25
2023-03-03T12:28:09.474Z,1.30
2023-03-03T12:31:10.471Z,0.57
2023-03-03T12:33:52.971Z,1.10
2023-03-03T12:36:32.281Z,1.98
2023-03-03T12:39:02.674Z,0.75
2023-03-03T12:41:35.672Z,1.42
2023-03-03T12:44:06.332Z,3.22
2023-03-03T12:46:41.498Z,1.38
2023-03-03T12:49:10.031Z,1.33
2023-03-03T12:51:43.995Z,4.35
2023-03-03T12:54:19.440Z,1.08
2023-03-03T12:56:50.718Z,1.20
2023-03-03T12:59:21.756Z,0.82
2023-03-03T13:02:11.253Z,0.75
2023-03-03T13:04:41.279Z,0.75
2023-03-03T13:07:14.290Z,1.88
2023-03-03T13:09:53.880Z,2.15
2023-03-03T13:12:33.231Z,1.70
2023-03-03T13:15:07.987Z,1.30
2023-03-03T13:17:38.853Z,1.08
2023-03-03T13:20:13.076Z,1.40
2023-03-03T13:22:43.328Z,2.00
2023-03-03T13:25:28.557Z,1.80
2023-03-03T13:28:01.859Z,2.08
2023-03-03T13:30:32.883Z,0.40
2023-03-03T13:33:02.484Z,3.63
2023-03-03T13:35:34.632Z,9.73
2023-03-03T13:38:03.180Z,13.50
2023-03-03T13:40:39.648Z,7.15
2023-03-03T13:43:13.939Z,7.63
2023-03-03T13:45:49.797Z,9.73
2023-03-03T13:48:27.863Z,3.33
2023-03-03T13:51:02.574Z,6.13
2023-03-03T13:53:37.619Z,4.35
2023-03-03T13:56:11.992Z,8.88
2023-03-03T13:58:43.510Z,3.60
2023-03-03T14:01:15.503Z,2.55
2023-03-03T14:04:03.031Z,2.42
2023-03-03T14:06:31.545Z,3.15
2023-03-03T14:09:13.403Z,1.42
2023-03-03T14:11:45.709Z,4.82
2023-03-03T14:14:24.847Z,2.45
2023-03-03T14:16:53.873Z,1.90
2023-03-03T14:19:27.444Z,2.13
2023-03-03T14:22:13.217Z,2.13
2023-03-03T14:25:11.979Z,1.95
2023-03-03T14:27:41.846Z,3.40
2023-03-03T14:30:31.925Z,1.48
2023-03-03T14:33:06.319Z,3.05
2023-03-03T14:35:35.565Z,5.97
2023-03-03T14:38:04.581Z,9.18
2023-03-03T14:40:33.633Z,0.82
2023-03-03T14:43:02.858Z,1.77
2023-03-03T14:45:36.058Z,1.50
2023-03-03T14:48:12.437Z,0.60
2023-03-03T14:50:41.548Z,5.00
2023-03-03T14:53:17.290Z,4.55
2023-03-03T14:55:46.579Z,1.95
2023-03-03T14:58:29.771Z,2.03
2023-03-03T15:01:10.734Z,3.25
2023-03-03T15:03:39.179Z,1.73
2023-03-03T15:06:11.920Z,0.88
2023-03-03T15:08:41.333Z,1.33
2023-03-03T15:11:21.520Z,2.15
2023-03-03T15:13:49.958Z,3.42
2023-03-03T15:16:20.409Z,2.90
2023-03-03T15:19:05.743Z,0.70
2023-03-03T15:21:34.317Z,3.15
2023-03-03T15:24:04.213Z,2.00
2023-03-03T15:26:39.475Z,1.50
2023-03-03T15:29:09.338Z,2.05
2023-03-03T15:31:44.490Z,11.00
2023-03-03T15:34:33.917Z,2.30
2023-03-03T15:37:06.928Z,10.43
2023-03-03T15:39:38.807Z,8.73
2023-03-03T15:42:11.815Z,15.77
2023-03-03T15:44:47.422Z,8.40
2023-03-03T15:47:36.207Z,4.50
2023-03-03T15:50:19.673Z,6.88
2023-03-03T15:52:53.140Z,2.58
2023-03-03T15:55:29.313Z,9.35
2023-03-03T15:58:05.042Z,4.00
2023-03-03T16:00:36.770Z,6.22
2023-03-03T16:03:12.481Z,2.05
2023-03-03T16:05:45.811Z,2.60
2023-03-03T16:08:15.766Z,3.20
2023-03-03T16:10:48.452Z,1.90
2023-03-03T16:13:23.259Z,4.68
2023-03-03T16:15:59.703Z,3.90
2023-03-03T16:18:34.427Z,1.57
2023-03-03T16:21:13.967Z,4.13
2023-03-03T16:23:47.211Z,15.40
2023-03-03T16:26:21.561Z,14.27
2023-03-03T16:29:00.291Z,15.50
2023-03-03T16:31:30.572Z,9.23
2023-03-03T16:34:05.691Z,10.10
2023-03-03T16:36:37.868Z,13.27
2023-03-03T16:39:07.629Z,17.58
2023-03-03T16:41:42.422Z,7.75
2023-03-03T16:44:17.331Z,10.93
2023-03-03T16:46:47.302Z,13.15
2023-03-03T16:49:19.935Z,12.27
2023-03-03T16:51:50.447Z,16.25
2023-03-03T16:54:22.144Z,16.75
2023-03-03T16:56:53.756Z,16.42
2023-03-03T16:59:31.012Z,14.77
2023-03-03T17:04:40.763Z,9.20
2023-03-03T17:07:21.068Z,14.13
2023-03-03T17:10:04.400Z,12.90
2023-03-03T17:12:43.165Z,10.90
2023-03-03T17:15:17.548Z,12.75
2023-03-03T17:17:48.223Z,9.82
2023-03-03T17:20:25.024Z,5.85
2023-03-03T17:22:59.247Z,7.10
2023-03-03T17:25:31.362Z,7.25
2023-03-03T17:28:10.893Z,7.65
2023-03-03T17:30:43.186Z,7.70
2023-03-03T17:33:21.997Z,8.73
2023-03-03T17:36:13.802Z,9.05
2023-03-03T17:38:47.877Z,5.70
2023-03-03T17:41:18.029Z,6.28
2023-03-03T17:43:49.143Z,6.43
2023-03-03T17:46:21.465Z,9.80
2023-03-03T17:49:22.499Z,8.05
2023-03-03T17:52:09.013Z,8.63
2023-03-03T17:55:12.816Z,4.88
2023-03-03T17:57:52.054Z,3.53
2023-03-03T18:00:36.559Z,6.93
2023-03-03T18:03:27.823Z,5.78
2023-03-03T18:06:04.829Z,4.82
2023-03-03T18:08:42.497Z,5.68
2023-03-03T18:11:41.961Z,4.47
2023-03-03T18:14:29.693Z,7.07
2023-03-03T18:19:49.219Z,7.03
2023-03-03T18:22:19.709Z,12.13
2023-03-03T18:25:00.223Z,6.40
2023-03-03T18:27:36.491Z,7.70
2023-03-03T18:30:24.938Z,5.60
2023-03-03T18:33:43.174Z,5.93
2023-03-03T18:36:15.758Z,4.53
2023-03-03T18:38:48.523Z,3.65
2023-03-03T18:41:23.492Z,7.00
2023-03-03T18:43:59.032Z,4.43
2023-03-03T18:46:49.903Z,5.88
2023-03-03T18:49:18.550Z,4.97
2023-03-03T18:51:53.224Z,4.40
2023-03-03T18:54:31.009Z,4.82
2023-03-03T18:57:19.929Z,6.15
2023-03-03T18:59:56.176Z,2.70
2023-03-03T19:02:46.161Z,3.38
2023-03-03T19:05:20.208Z,4.15
2023-03-03T19:07:51.674Z,5.93
2023-03-03T19:10:48.368Z,5.55
2023-03-03T19:13:52.083Z,5.63
2023-03-03T19:16:36.752Z,5.13
2023-03-03T19:19:13.969Z,3.45
2023-03-03T19:24:27.507Z,5.38
2023-03-03T19:27:15.164Z,6.03
2023-03-03T19:29:56.264Z,6.38
2023-03-03T19:32:36.352Z,3.58
2023-03-03T19:35:13.713Z,3.63
2023-03-03T19:37:45.913Z,6.30
2023-03-03T19:40:19.830Z,4.55
2023-03-03T19:42:52.649Z,6.13
2023-03-03T19:45:30.637Z,3.15
2023-03-03T19:48:04.106Z,3.90
2023-03-03T19:50:36.969Z,4.75
2023-03-03T19:53:09.074Z,5.20
2023-03-03T19:55:44.553Z,5.97
2023-03-03T19:58:20.894Z,5.35
2023-03-03T20:00:51.864Z,7.77
2023-03-03T20:03:44.053Z,3.38
2023-03-03T20:06:24.532Z,9.05
2023-03-03T20:08:57.473Z,4.57
2023-03-03T20:11:48.196Z,5.35
2023-03-03T20:14:54.919Z,6.45
2023-03-03T20:17:43.656Z,5.53
2023-03-03T20:20:34.913Z,9.32
2023-03-03T20:23:07.353Z,3.33
2023-03-03T20:25:37.188Z,5.30
2023-03-03T20:28:07.834Z,4.45
2023-03-03T20:30:52.451Z,3.00
2023-03-03T20:33:38.916Z,3.05
2023-03-03T20:36:19.434Z,4.85
2023-03-03T20:38:56.224Z,6.35
2023-03-03T20:41:30.447Z,3.95
2023-03-03T20:44:08.442Z,5.72
2023-03-03T20:46:42.336Z,5.13
2023-03-03T20:49:43.302Z,5.75
2023-03-03T20:52:15.638Z,8.35
2023-03-03T20:54:46.191Z,4.88
2023-03-03T20:57:18.050Z,7.25
2023-03-03T20:59:49.288Z,6.28
2023-03-03T21:02:20.056Z,6.18
2023-03-03T21:04:48.426Z,9.70
2023-03-03T21:07:28.227Z,5.55
2023-03-03T21:10:15.232Z,3.50
2023-03-03T21:12:43.607Z,4.40
2023-03-03T21:15:23.259Z,5.38
2023-03-03T21:17:51.689Z,3.45
2023-03-03T21:20:21.661Z,6.47
2023-03-03T21:22:53.089Z,5.10
2023-03-03T21:25:46.852Z,4.22
2023-03-03T21:28:19.733Z,5.20
2023-03-03T21:31:04.957Z,4.80
2023-03-03T21:33:50.924Z,2.60
2023-03-03T21:36:19.998Z,5.07
2023-03-03T21:38:50.127Z,7.63
2023-03-03T21:41:19.055Z,6.60
2023-03-03T21:43:48.027Z,3.40
2023-03-03T21:46:19.320Z,3.85
2023-03-03T21:48:47.747Z,4.15
2023-03-03T21:51:16.085Z,7.90
2023-03-03T21:53:44.768Z,7.13
2023-03-03T21:56:15.128Z,9.23
2023-03-03T21:58:43.746Z,2.60
2023-03-03T22:01:12.203Z,9.35
2023-03-03T22:03:40.632Z,7.60
2023-03-03T22:06:09.243Z,5.10
2023-03-03T22:08:37.610Z,3.10
2023-03-03T22:11:06.217Z,4.97
2023-03-03T22:13:35.971Z,6.05
2023-03-03T22:16:07.578Z,3.65
2023-03-03T22:18:36.005Z,4.13
2023-03-03T22:21:04.448Z,4.07
2023-03-03T22:23:32.920Z,5.18
2023-03-03T22:26:02.122Z,17.77
2023-03-03T22:28:30.483Z,5.22
2023-03-03T22:31:00.224Z,8.98
2023-03-03T22:33:28.593Z,7.93
2023-03-03T22:35:56.979Z,2.75
2023-03-03T22:38:25.605Z,5.78
2023-03-03T22:40:55.631Z,5.50
2023-03-03T22:43:25.644Z,6.43
2023-03-03T22:45:54.095Z,5.78
2023-03-03T22:48:24.373Z,6.13
2023-03-03T22:50:52.830Z,5.20
2023-03-03T22:53:21.169Z,7.45
2023-03-03T22:55:49.556Z,5.05
2023-03-03T22:58:19.621Z,7.10
2023-03-03T23:00:48.109Z,6.43
2023-03-03T23:03:16.646Z,5.05
2023-03-03T23:05:46.394Z,5.38
2023-03-03T23:08:15.816Z,5.95
2023-03-03T23:10:44.207Z,6.68
2023-03-03T23:13:12.511Z,5.25
2023-03-03T23:15:48.819Z,4.72
2023-03-03T23:18:17.212Z,6.67
2023-03-03T23:20:46.866Z,3.63
2023-03-03T23:23:15.212Z,5.22
2023-03-03T23:25:43.585Z,7.68
2023-03-03T23:28:15.343Z,2.92
2023-03-03T23:30:43.734Z,8.85
2023-03-03T23:33:12.088Z,4.57
2023-03-03T23:35:40.449Z,4.55
2023-03-03T23:38:15.388Z,3.35
2023-03-03T23:40:43.854Z,4.15
2023-03-03T23:43:12.241Z,5.00
2023-03-03T23:45:40.582Z,3.88
2023-03-03T23:48:08.892Z,4.68
2023-03-03T23:50:38.042Z,4.30
2023-03-03T23:53:10.044Z,5.47
2023-03-03T23:55:39.278Z,7.07
2023-03-03T23:58:10.381Z,9.05
